createdAt,value
2018-05-18T00:00:54.403Z,11.20
2018-05-18T00:03:22.715Z,11.10
2018-05-18T00:05:50.267Z,11.10
2018-05-18T00:08:18.569Z,11.10
2018-05-18T00:10:46.150Z,11.10
2018-05-18T00:13:13.721Z,11.10
2018-05-18T00:15:41.291Z,11.00
2018-05-18T00:18:08.845Z,11.00
2018-05-18T00:20:36.430Z,11.00
2018-05-18T00:23:03.982Z,11.00
2018-05-18T00:25:31.531Z,11.00
2018-05-18T00:27:59.104Z,10.90
2018-05-18T00:30:26.646Z,11.00
2018-05-18T00:32:54.216Z,10.90
2018-05-18T00:35:21.787Z,11.00
2018-05-18T00:37:49.342Z,11.00
2018-05-18T00:40:16.915Z,10.90
2018-05-18T00:42:44.492Z,10.90
2018-05-18T00:45:12.068Z,10.80
2018-05-18T00:47:39.621Z,10.80
2018-05-18T00:50:07.171Z,10.90
2018-05-18T00:52:34.723Z,10.80
2018-05-18T00:55:02.300Z,10.80
2018-05-18T00:57:29.864Z,10.80
2018-05-18T00:59:57.430Z,10.80
2018-05-18T01:02:24.993Z,10.70
2018-05-18T01:04:52.562Z,10.70
2018-05-18T01:07:20.135Z,10.70
2018-05-18T01:09:47.694Z,10.60
2018-05-18T01:12:15.243Z,10.60
2018-05-18T01:14:42.843Z,10.60
2018-05-18T01:17:10.390Z,10.60
2018-05-18T01:19:37.959Z,10.60
2018-05-18T01:22:05.530Z,10.60
2018-05-18T01:24:33.112Z,10.60
2018-05-18T01:27:00.788Z,10.50
2018-05-18T01:29:28.308Z,10.50
2018-05-18T01:31:55.862Z,10.40
2018-05-18T01:34:23.413Z,10.40
2018-05-18T01:36:50.964Z,10.40
2018-05-18T01:39:18.549Z,10.40
2018-05-18T01:41:46.091Z,10.40
2018-05-18T01:44:13.653Z,10.40
2018-05-18T01:46:41.227Z,10.40
2018-05-18T01:49:08.805Z,10.30
2018-05-18T01:51:36.382Z,10.30
2018-05-18T01:54:03.976Z,10.20
2018-05-18T01:56:31.614Z,10.20
2018-05-18T01:58:59.191Z,10.20
2018-05-18T02:01:26.758Z,10.20
2018-05-18T02:03:54.312Z,10.20
2018-05-18T02:06:21.862Z,10.30
2018-05-18T02:08:49.431Z,10.20
2018-05-18T02:11:16.993Z,10.20
2018-05-18T02:13:44.562Z,10.20
2018-05-18T02:16:12.105Z,10.20
2018-05-18T02:18:39.646Z,10.10
2018-05-18T02:21:07.181Z,10.10
2018-05-18T02:23:34.732Z,10.10
2018-05-18T02:26:02.306Z,10.10
2018-05-18T02:28:29.888Z,10.10
2018-05-18T02:30:57.475Z,10.10
2018-05-18T02:33:25.056Z,10.10
2018-05-18T02:35:52.634Z,10.10
2018-05-18T02:38:20.208Z,10.00
2018-05-18T02:40:47.818Z,10.00
2018-05-18T02:43:16.133Z,9.90
2018-05-18T02:45:43.703Z,9.90
2018-05-18T02:48:11.238Z,9.90
2018-05-18T02:50:38.778Z,9.90
2018-05-18T02:53:06.325Z,9.90
2018-05-18T02:55:33.902Z,9.90
2018-05-18T02:58:01.472Z,9.90
2018-05-18T03:00:29.021Z,9.90
2018-05-18T03:02:56.567Z,9.90
2018-05-18T03:05:24.102Z,9.90
2018-05-18T03:07:51.656Z,9.90
2018-05-18T03:10:19.220Z,9.80
2018-05-18T03:12:46.772Z,9.80
2018-05-18T03:15:15.068Z,9.80
2018-05-18T03:17:42.644Z,9.80
2018-05-18T03:20:10.199Z,9.80
2018-05-18T03:22:37.735Z,9.80
2018-05-18T03:25:05.307Z,9.80
2018-05-18T03:27:33.647Z,9.80
2018-05-18T03:30:01.206Z,9.80
2018-05-18T03:32:28.769Z,9.80
2018-05-18T03:34:56.334Z,9.80
2018-05-18T03:37:23.903Z,9.90
2018-05-18T03:39:51.450Z,9.80
2018-05-18T03:42:19.027Z,9.90
2018-05-18T03:44:46.587Z,9.80
2018-05-18T03:47:14.145Z,9.80
2018-05-18T03:49:41.715Z,9.80
2018-05-18T03:52:09.271Z,9.80
2018-05-18T03:54:36.824Z,9.80
2018-05-18T03:57:04.391Z,9.80
2018-05-18T03:59:31.944Z,9.80
2018-05-18T04:02:23.041Z,9.80
2018-05-18T04:05:02.363Z,9.80
2018-05-18T04:07:41.771Z,9.80
2018-05-18T04:10:10.098Z,9.90
2018-05-18T04:12:37.662Z,9.90
2018-05-18T04:15:05.236Z,9.90
2018-05-18T04:17:32.788Z,9.80
2018-05-18T04:20:00.364Z,9.80
2018-05-18T04:22:28.816Z,9.80
2018-05-18T04:24:57.151Z,9.90
2018-05-18T04:27:24.711Z,9.90
2018-05-18T04:29:52.289Z,9.90
2018-05-18T04:32:19.842Z,9.90
2018-05-18T04:34:47.402Z,9.90
2018-05-18T04:37:14.976Z,9.90
2018-05-18T04:39:42.555Z,9.90
2018-05-18T04:42:10.125Z,10.00
2018-05-18T04:44:37.693Z,9.90
2018-05-18T04:47:05.263Z,9.90
2018-05-18T04:49:32.808Z,9.90
2018-05-18T04:52:00.346Z,9.90
2018-05-18T04:54:27.901Z,9.90
2018-05-18T04:56:55.451Z,9.90
2018-05-18T04:59:22.994Z,9.80
2018-05-18T05:01:51.357Z,9.80
2018-05-18T05:04:18.913Z,9.90
2018-05-18T05:06:46.526Z,9.90
2018-05-18T05:09:14.074Z,9.90
2018-05-18T05:11:42.376Z,10.00
2018-05-18T05:14:09.948Z,10.00
2018-05-18T05:16:37.503Z,10.10
2018-05-18T05:19:05.098Z,10.00
2018-05-18T05:21:33.274Z,10.00
2018-05-18T05:24:00.817Z,10.00
2018-05-18T05:26:28.399Z,10.10
2018-05-18T05:28:55.958Z,10.10
2018-05-18T05:31:23.499Z,10.10
2018-05-18T05:33:51.098Z,10.10
2018-05-18T05:36:18.651Z,10.10
2018-05-18T05:38:46.189Z,10.10
2018-05-18T05:41:13.780Z,10.10
2018-05-18T05:43:41.351Z,10.10
2018-05-18T05:46:08.917Z,10.10
2018-05-18T05:48:36.493Z,10.10
2018-05-18T05:51:04.068Z,10.20
2018-05-18T05:53:31.617Z,10.20
2018-05-18T05:55:59.175Z,10.20
2018-05-18T05:58:26.797Z,10.30
2018-05-18T06:00:54.395Z,10.20
2018-05-18T06:03:21.940Z,10.30
2018-05-18T06:05:49.546Z,10.30
2018-05-18T06:08:17.116Z,10.50
2018-05-18T06:10:44.691Z,10.50
2018-05-18T06:13:12.274Z,10.50
2018-05-18T06:15:40.615Z,10.60
2018-05-18T06:18:08.185Z,10.60
2018-05-18T06:20:35.758Z,10.70
2018-05-18T06:23:03.326Z,10.70
2018-05-18T06:25:30.879Z,10.70
2018-05-18T06:27:58.447Z,10.70
2018-05-18T06:30:25.999Z,10.80
2018-05-18T06:32:53.545Z,10.90
2018-05-18T06:35:21.091Z,10.90
2018-05-18T06:37:48.636Z,11.00
2018-05-18T06:40:16.951Z,11.00
2018-05-18T06:42:44.523Z,11.00
2018-05-18T06:45:12.107Z,11.00
2018-05-18T06:47:39.661Z,11.10
2018-05-18T06:50:07.249Z,11.10
2018-05-18T06:52:34.881Z,11.20
2018-05-18T06:55:03.204Z,11.30
2018-05-18T06:57:30.742Z,11.30
2018-05-18T06:59:58.284Z,11.30
2018-05-18T07:02:25.833Z,11.30
2018-05-18T07:04:53.411Z,11.30
2018-05-18T07:07:20.982Z,11.40
2018-05-18T07:09:48.545Z,11.50
2018-05-18T07:12:16.124Z,11.60
2018-05-18T07:14:43.679Z,11.70
2018-05-18T07:17:11.252Z,11.80
2018-05-18T07:19:38.803Z,11.70
2018-05-18T07:22:06.376Z,11.80
2018-05-18T07:24:33.987Z,11.80
2018-05-18T07:27:02.303Z,11.70
2018-05-18T07:29:30.108Z,11.70
2018-05-18T07:31:57.863Z,11.80
2018-05-18T07:34:25.411Z,11.90
2018-05-18T07:36:52.969Z,11.90
2018-05-18T07:39:20.650Z,12.00
2018-05-18T07:41:48.226Z,12.00
2018-05-18T07:44:15.803Z,11.90
2018-05-18T07:46:43.377Z,11.90
2018-05-18T07:49:10.937Z,11.90
2018-05-18T07:51:38.477Z,11.90
2018-05-18T07:54:06.016Z,11.90
2018-05-18T07:56:33.603Z,12.00
2018-05-18T07:59:01.138Z,12.10
2018-05-18T08:01:28.711Z,12.10
2018-05-18T08:03:56.264Z,12.10
2018-05-18T08:06:23.811Z,12.00
2018-05-18T08:08:52.159Z,12.10
2018-05-18T08:11:19.715Z,12.00
2018-05-18T08:13:47.292Z,12.20
2018-05-18T08:16:14.875Z,12.30
2018-05-18T08:18:43.218Z,12.40
2018-05-18T08:21:10.790Z,12.40
2018-05-18T08:23:41.344Z,12.40
2018-05-18T08:26:09.700Z,12.50
2018-05-18T08:29:00.901Z,12.50
2018-05-18T08:31:28.445Z,12.60
2018-05-18T08:33:56.007Z,12.70
2018-05-18T08:36:23.569Z,12.60
2018-05-18T08:38:51.122Z,12.70
2018-05-18T08:41:18.676Z,12.80
2018-05-18T08:43:47.010Z,12.80
2018-05-18T08:46:14.563Z,12.80
2018-05-18T08:48:42.143Z,12.90
2018-05-18T08:51:09.695Z,12.80
2018-05-18T08:53:37.283Z,12.90
2018-05-18T08:56:04.859Z,13.10
2018-05-18T08:58:32.455Z,13.20
2018-05-18T09:01:00.018Z,13.30
2018-05-18T09:03:27.606Z,13.30
2018-05-18T09:05:55.542Z,13.30
2018-05-18T09:08:23.882Z,13.70
2018-05-18T09:10:51.448Z,13.70
2018-05-18T09:13:18.986Z,13.70
2018-05-18T09:15:46.620Z,13.80
2018-05-18T09:18:14.128Z,13.90
2018-05-18T09:20:41.698Z,14.00
2018-05-18T09:23:09.248Z,14.20
2018-05-18T09:25:36.795Z,14.30
2018-05-18T09:28:04.369Z,14.50
2018-05-18T09:30:31.912Z,14.60
2018-05-18T09:32:59.483Z,14.80
2018-05-18T09:35:27.051Z,15.00
2018-05-18T09:37:54.630Z,15.10
2018-05-18T09:40:22.197Z,15.20
2018-05-18T09:42:49.815Z,15.20
2018-05-18T09:45:18.230Z,15.10
2018-05-18T09:47:59.988Z,15.10
2018-05-18T09:50:29.732Z,14.90
2018-05-18T09:52:57.315Z,15.20
2018-05-18T09:55:24.965Z,15.30
2018-05-18T09:57:52.445Z,15.00
2018-05-18T10:00:19.989Z,14.90
2018-05-18T10:02:47.558Z,15.00
2018-05-18T10:05:15.218Z,15.10
2018-05-18T10:07:42.781Z,15.20
2018-05-18T10:10:15.368Z,15.20
2018-05-18T10:12:56.967Z,15.40
2018-05-18T10:15:24.536Z,15.50
2018-05-18T10:17:52.097Z,15.80
2018-05-18T10:20:19.659Z,16.10
2018-05-18T10:22:47.196Z,16.20
2018-05-18T10:25:14.810Z,16.20
2018-05-18T10:27:42.390Z,16.30
2018-05-18T10:30:13.183Z,16.70
2018-05-18T10:32:41.174Z,17.20
2018-05-18T10:35:08.746Z,17.40
2018-05-18T10:37:36.325Z,17.60
2018-05-18T10:40:03.912Z,17.90
2018-05-18T10:42:31.487Z,17.90
2018-05-18T10:44:59.041Z,17.90
2018-05-18T10:47:27.365Z,17.50
2018-05-18T10:49:54.931Z,17.50
2018-05-18T10:52:22.511Z,17.50
2018-05-18T10:54:50.087Z,17.60
2018-05-18T10:57:17.635Z,18.00
2018-05-18T10:59:45.200Z,18.00
2018-05-18T11:02:12.957Z,18.40
2018-05-18T11:04:40.522Z,18.40
2018-05-18T11:07:08.074Z,18.50
2018-05-18T11:09:35.648Z,18.50
2018-05-18T11:12:03.213Z,18.20
2018-05-18T11:14:30.759Z,18.00
2018-05-18T11:16:58.327Z,18.00
2018-05-18T11:19:25.870Z,18.00
2018-05-18T11:21:53.455Z,18.20
2018-05-18T11:24:20.997Z,18.60
2018-05-18T11:26:48.553Z,18.80
2018-05-18T11:29:16.974Z,18.90
2018-05-18T11:31:44.561Z,19.00
2018-05-18T11:34:12.158Z,19.20
2018-05-18T11:36:40.515Z,19.90
2018-05-18T11:39:08.232Z,19.90
2018-05-18T11:41:35.747Z,19.90
2018-05-18T11:44:03.344Z,19.70
2018-05-18T11:46:31.693Z,19.10
2018-05-18T11:48:59.242Z,19.00
2018-05-18T11:51:27.532Z,18.70
2018-05-18T11:53:55.093Z,18.50
2018-05-18T11:56:22.672Z,18.50
2018-05-18T11:58:50.283Z,18.30
2018-05-18T12:01:17.860Z,18.20
2018-05-18T12:03:45.429Z,18.20
2018-05-18T12:06:12.979Z,18.20
2018-05-18T12:08:40.563Z,18.40
2018-05-18T12:11:08.129Z,18.50
2018-05-18T12:13:35.666Z,18.30
2018-05-18T12:16:03.246Z,18.50
2018-05-18T12:18:30.818Z,18.90
2018-05-18T12:20:58.367Z,19.00
2018-05-18T12:23:25.955Z,18.70
2018-05-18T12:25:53.531Z,18.50
2018-05-18T12:28:21.153Z,18.00
2018-05-18T12:30:48.703Z,17.90
2018-05-18T12:33:17.040Z,18.00
2018-05-18T12:35:44.583Z,18.00
2018-05-18T12:38:12.197Z,18.10
2018-05-18T12:40:39.738Z,18.30
2018-05-18T12:43:07.310Z,18.40
2018-05-18T12:45:34.863Z,18.30
2018-05-18T12:48:02.412Z,18.20
2018-05-18T12:50:29.986Z,18.00
2018-05-18T12:52:58.127Z,17.70
2018-05-18T12:55:26.637Z,17.60
2018-05-18T12:57:54.211Z,17.60
2018-05-18T13:00:21.759Z,17.60
2018-05-18T13:02:49.312Z,17.70
2018-05-18T13:05:16.940Z,17.90
2018-05-18T13:07:44.514Z,18.00
2018-05-18T13:10:12.838Z,18.20
2018-05-18T13:12:40.407Z,18.20
2018-05-18T13:15:07.960Z,18.10
2018-05-18T13:17:35.535Z,18.10
2018-05-18T13:20:03.129Z,18.40
2018-05-18T13:22:30.678Z,18.40
2018-05-18T13:24:58.253Z,18.40
2018-05-18T13:27:25.831Z,18.10
2018-05-18T13:29:53.408Z,18.10
2018-05-18T13:32:21.737Z,17.90
2018-05-18T13:34:49.283Z,17.90
2018-05-18T13:37:16.837Z,18.00
2018-05-18T13:39:44.482Z,18.00
2018-05-18T13:42:12.087Z,18.00
2018-05-18T13:44:39.765Z,17.90
2018-05-18T13:47:08.037Z,17.80
2018-05-18T13:49:35.593Z,17.90
2018-05-18T13:52:03.126Z,18.00
2018-05-18T13:54:31.471Z,17.80
2018-05-18T13:56:59.028Z,17.80
2018-05-18T13:59:26.601Z,17.80
2018-05-18T14:01:54.141Z,17.80
2018-05-18T14:04:21.691Z,17.90
2018-05-18T14:06:49.422Z,17.90
2018-05-18T14:09:16.975Z,17.80
2018-05-18T14:11:44.564Z,17.80
2018-05-18T14:14:12.901Z,17.80
2018-05-18T14:16:40.474Z,17.80
2018-05-18T14:19:08.063Z,17.80
2018-05-18T14:21:35.615Z,17.60
2018-05-18T14:24:03.204Z,17.50
2018-05-18T14:26:31.650Z,17.70
2018-05-18T14:28:59.134Z,17.70
2018-05-18T14:31:26.677Z,17.70
2018-05-18T14:33:54.227Z,17.60
2018-05-18T14:36:21.835Z,17.50
2018-05-18T14:38:50.137Z,17.70
2018-05-18T14:41:17.677Z,17.60
2018-05-18T14:43:45.221Z,17.70
2018-05-18T14:46:12.767Z,17.70
2018-05-18T14:48:40.374Z,17.80
2018-05-18T14:51:08.695Z,17.60
2018-05-18T14:53:36.242Z,17.60
2018-05-18T14:56:03.808Z,17.40
2018-05-18T14:58:31.413Z,17.30
2018-05-18T15:00:58.962Z,17.30
2018-05-18T15:03:26.587Z,17.30
2018-05-18T15:05:54.903Z,17.10
2018-05-18T15:08:22.445Z,17.00
2018-05-18T15:10:50.882Z,17.10
2018-05-18T15:13:19.118Z,16.90
2018-05-18T15:15:46.707Z,16.90
2018-05-18T15:18:14.249Z,16.80
2018-05-18T15:20:41.818Z,16.70
2018-05-18T15:23:09.392Z,16.60
2018-05-18T15:25:36.933Z,16.40
2018-05-18T15:28:04.479Z,16.40
2018-05-18T15:30:32.835Z,16.10
2018-05-18T15:33:00.389Z,16.10
2018-05-18T15:35:27.959Z,16.20
2018-05-18T15:37:55.544Z,16.20
2018-05-18T15:40:44.312Z,16.20
2018-05-18T15:43:11.895Z,16.10
2018-05-18T15:45:39.489Z,16.10
2018-05-18T15:48:07.049Z,16.00
2018-05-18T15:50:34.601Z,15.90
2018-05-18T15:53:02.133Z,15.80
2018-05-18T15:55:33.110Z,15.70
2018-05-18T15:58:00.935Z,15.70
2018-05-18T16:00:29.280Z,15.70
2018-05-18T16:02:56.868Z,15.70
2018-05-18T16:05:24.629Z,15.60
2018-05-18T16:07:52.250Z,15.60
2018-05-18T16:10:20.211Z,15.60
2018-05-18T16:12:47.819Z,15.50
2018-05-18T16:15:15.365Z,15.50
2018-05-18T16:17:42.992Z,15.50
2018-05-18T16:20:11.550Z,15.50
2018-05-18T16:22:39.108Z,15.50
2018-05-18T16:25:06.670Z,15.40
2018-05-18T16:27:34.210Z,15.40
2018-05-18T16:30:01.787Z,15.30
2018-05-18T16:32:29.358Z,15.20
2018-05-18T16:34:56.897Z,15.20
2018-05-18T16:37:24.466Z,15.10
2018-05-18T16:39:52.039Z,15.10
2018-05-18T16:42:19.578Z,15.00
2018-05-18T16:44:47.136Z,15.10
2018-05-18T16:47:14.669Z,15.00
2018-05-18T16:49:43.002Z,14.90
2018-05-18T16:52:10.583Z,14.90
2018-05-18T16:54:38.857Z,14.80
2018-05-18T16:57:06.447Z,14.80
2018-05-18T16:59:34.168Z,14.80
2018-05-18T17:02:01.735Z,14.70
2018-05-18T17:04:29.277Z,14.70
2018-05-18T17:06:56.822Z,14.70
2018-05-18T17:09:25.126Z,14.50
2018-05-18T17:11:52.662Z,14.50
2018-05-18T17:14:20.244Z,14.50
2018-05-18T17:16:47.802Z,14.50
2018-05-18T17:19:16.126Z,14.40
2018-05-18T17:21:43.705Z,14.40
2018-05-18T17:24:11.274Z,14.40
2018-05-18T17:26:38.855Z,14.30
2018-05-18T17:29:06.447Z,14.30
2018-05-18T17:31:34.804Z,14.30
2018-05-18T17:34:02.353Z,14.20
2018-05-18T17:36:29.944Z,14.20
2018-05-18T17:38:58.263Z,14.20
2018-05-18T17:41:25.819Z,14.20
2018-05-18T17:43:53.391Z,14.10
2018-05-18T17:46:20.953Z,14.10
2018-05-18T17:48:48.546Z,14.00
2018-05-18T17:51:16.126Z,13.90
2018-05-18T17:53:43.694Z,13.90
2018-05-18T17:56:11.288Z,13.80
2018-05-18T17:58:39.612Z,13.80
2018-05-18T18:01:07.187Z,13.80
2018-05-18T18:03:34.751Z,13.70
2018-05-18T18:06:02.347Z,13.70
2018-05-18T18:08:30.687Z,13.50
2018-05-18T18:10:58.241Z,13.50
2018-05-18T18:13:25.805Z,13.50
2018-05-18T18:15:53.399Z,13.40
2018-05-18T18:18:20.991Z,13.40
2018-05-18T18:20:49.334Z,13.40
2018-05-18T18:23:16.891Z,13.40
2018-05-18T18:25:44.459Z,13.40
2018-05-18T18:28:12.047Z,13.40
2018-05-18T18:30:39.596Z,13.40
2018-05-18T18:33:07.175Z,13.40
2018-05-18T18:35:34.735Z,13.30
2018-05-18T18:38:02.314Z,13.30
2018-05-18T18:40:29.930Z,13.30
2018-05-18T18:42:57.479Z,13.30
2018-05-18T18:45:25.085Z,13.30
2018-05-18T18:47:52.640Z,13.30
2018-05-18T18:50:20.233Z,13.20
2018-05-18T18:52:48.602Z,13.10
2018-05-18T18:55:16.159Z,13.10
2018-05-18T18:57:43.699Z,13.10
2018-05-18T19:00:11.292Z,13.10
2018-05-18T19:02:38.883Z,13.00
2018-05-18T19:05:07.235Z,13.10
2018-05-18T19:07:34.787Z,13.00
2018-05-18T19:10:02.350Z,13.00
2018-05-18T19:12:29.978Z,12.90
2018-05-18T19:14:57.554Z,12.90
2018-05-18T19:17:25.131Z,12.90
2018-05-18T19:19:52.693Z,12.90
2018-05-18T19:22:20.402Z,12.90
2018-05-18T19:24:47.967Z,12.90
2018-05-18T19:27:15.541Z,12.80
2018-05-18T19:29:43.194Z,12.80
2018-05-18T19:32:10.723Z,12.80
2018-05-18T19:34:38.272Z,12.80
2018-05-18T19:37:05.822Z,12.80
2018-05-18T19:39:34.163Z,12.70
2018-05-18T19:42:01.739Z,12.70
2018-05-18T19:44:29.299Z,12.70
2018-05-18T19:46:56.874Z,12.70
2018-05-18T19:49:24.422Z,12.60
2018-05-18T19:51:51.993Z,12.60
2018-05-18T19:54:19.576Z,12.60
2018-05-18T19:56:47.929Z,12.60
2018-05-18T19:59:15.538Z,12.50
2018-05-18T20:01:43.859Z,12.50
2018-05-18T20:04:11.407Z,12.50
2018-05-18T20:06:38.953Z,12.40
2018-05-18T20:09:06.506Z,12.40
2018-05-18T20:11:34.894Z,12.40
2018-05-18T20:14:03.235Z,12.40
2018-05-18T20:16:30.786Z,12.40
2018-05-18T20:18:58.339Z,12.30
2018-05-18T20:21:25.906Z,12.30
2018-05-18T20:23:53.468Z,12.30
2018-05-18T20:26:21.024Z,12.30
2018-05-18T20:28:48.588Z,12.20
2018-05-18T20:31:16.174Z,12.20
2018-05-18T20:33:43.736Z,12.20
2018-05-18T20:36:11.311Z,12.20
2018-05-18T20:38:38.886Z,12.10
2018-05-18T20:41:07.249Z,12.10
2018-05-18T20:43:34.809Z,12.10
2018-05-18T20:46:02.380Z,12.10
2018-05-18T20:48:29.940Z,12.00
2018-05-18T20:50:57.552Z,12.00
2018-05-18T20:53:26.089Z,11.90
2018-05-18T20:55:53.674Z,12.00
2018-05-18T20:58:21.233Z,12.00
2018-05-18T21:00:48.848Z,11.90
2018-05-18T21:03:16.428Z,11.90
2018-05-18T21:05:44.037Z,11.90
2018-05-18T21:08:11.943Z,11.90
2018-05-18T21:10:40.384Z,11.90
2018-05-18T21:13:08.624Z,11.90
2018-05-18T21:15:36.211Z,11.90
2018-05-18T21:18:03.787Z,11.80
2018-05-18T21:20:31.375Z,11.80
2018-05-18T21:22:58.919Z,11.80
2018-05-18T21:25:26.493Z,11.80
2018-05-18T21:27:54.045Z,11.80
2018-05-18T21:30:21.609Z,11.70
2018-05-18T21:32:49.160Z,11.70
2018-05-18T21:35:16.709Z,11.70
2018-05-18T21:37:44.260Z,11.70
2018-05-18T21:40:11.797Z,11.70
2018-05-18T21:42:39.402Z,11.70
2018-05-18T21:45:06.959Z,11.70
2018-05-18T21:47:34.526Z,11.70
2018-05-18T21:50:02.116Z,11.70
2018-05-18T21:52:29.679Z,11.70
2018-05-18T21:54:57.241Z,11.70
2018-05-18T21:57:24.811Z,11.70
2018-05-18T21:59:52.365Z,11.70
2018-05-18T22:02:19.938Z,11.70
2018-05-18T22:04:47.516Z,11.70
2018-05-18T22:07:15.071Z,11.70
2018-05-18T22:09:42.624Z,11.70
2018-05-18T22:12:10.180Z,11.70
2018-05-18T22:14:37.791Z,11.70
2018-05-18T22:17:05.346Z,11.70
2018-05-18T22:19:32.906Z,11.70
2018-05-18T22:22:00.454Z,11.60
2018-05-18T22:24:28.026Z,11.60
2018-05-18T22:26:55.587Z,11.60
2018-05-18T22:29:23.141Z,11.60
2018-05-18T22:31:50.720Z,11.60
2018-05-18T22:34:18.270Z,11.60
2018-05-18T22:36:45.801Z,11.60
2018-05-18T22:39:13.345Z,11.60
2018-05-18T22:41:41.678Z,11.60
2018-05-18T22:44:09.217Z,11.60
2018-05-18T22:46:36.762Z,11.60
2018-05-18T22:49:05.109Z,11.60
2018-05-18T22:51:32.862Z,11.60
2018-05-18T22:54:00.403Z,11.60
2018-05-18T22:56:27.937Z,11.60
2018-05-18T22:58:56.244Z,11.60
2018-05-18T23:01:23.812Z,11.50
2018-05-18T23:03:51.378Z,11.60
2018-05-18T23:06:18.918Z,11.60
2018-05-18T23:08:47.270Z,11.50
2018-05-18T23:11:14.846Z,11.50
2018-05-18T23:13:43.173Z,11.50
2018-05-18T23:16:10.719Z,11.50
2018-05-18T23:18:38.275Z,11.50
2018-05-18T23:21:06.612Z,11.50
2018-05-18T23:23:34.158Z,11.50
2018-05-18T23:26:01.705Z,11.50
2018-05-18T23:28:29.283Z,11.50
2018-05-18T23:30:56.831Z,11.50
2018-05-18T23:33:24.406Z,11.40
2018-05-18T23:35:52.045Z,11.30
2018-05-18T23:38:19.590Z,11.30
2018-05-18T23:40:47.936Z,11.20
2018-05-18T23:43:15.487Z,11.20
2018-05-18T23:45:43.045Z,11.30
2018-05-18T23:48:10.597Z,11.20
2018-05-18T23:50:38.153Z,11.20
2018-05-18T23:53:05.703Z,11.20
2018-05-18T23:55:34.043Z,11.10
2018-05-18T23:58:01.581Z,11.10
